createdAt,value
2023-04-13T00:02:55.876Z,0.70
2023-04-13T00:08:03.217Z,0.50
2023-04-13T00:13:07.933Z,0.70
2023-04-13T00:18:12.372Z,0.60
2023-04-13T00:23:16.880Z,0.40
2023-04-13T00:28:19.980Z,0.50
2023-04-13T00:33:23.090Z,0.60
2023-04-13T00:38:29.898Z,0.43
2023-04-13T00:43:33.070Z,0.50
2023-04-13T00:48:36.523Z,0.50
2023-04-13T00:53:41.594Z,0.40
2023-04-13T00:58:45.576Z,0.57
2023-04-13T01:03:49.745Z,0.50
2023-04-13T01:08:58.904Z,0.40
2023-04-13T01:14:08.916Z,1.13
2023-04-13T01:19:22.408Z,0.50
2023-04-13T01:24:47.485Z,0.50
2023-04-13T01:29:52.284Z,0.50
2023-04-13T01:34:55.763Z,0.77
2023-04-13T01:39:58.852Z,0.93
2023-04-13T01:45:05.688Z,0.50
2023-04-13T01:50:16.821Z,0.50
2023-04-13T01:55:20.491Z,0.50
2023-04-13T02:00:32.064Z,0.43
2023-04-13T02:05:37.043Z,1.37
2023-04-13T02:10:42.369Z,0.50
2023-04-13T02:15:47.891Z,0.60
2023-04-13T02:21:01.344Z,2.83
2023-04-13T02:26:05.787Z,0.40
2023-04-13T02:31:10.285Z,0.50
2023-04-13T02:36:13.842Z,0.50
2023-04-13T02:41:17.184Z,0.60
2023-04-13T02:46:22.168Z,0.50
2023-04-13T02:51:25.384Z,2.63
2023-04-13T02:56:30.958Z,0.60
2023-04-13T03:01:35.634Z,0.87
2023-04-13T03:06:38.861Z,0.93
2023-04-13T03:11:42.480Z,1.47
2023-04-13T03:16:47.062Z,0.70
2023-04-13T03:21:50.415Z,0.60
2023-04-13T03:26:55.209Z,0.67
2023-04-13T03:32:00.952Z,0.60
2023-04-13T03:37:04.028Z,0.60
2023-04-13T03:42:07.703Z,0.80
2023-04-13T03:47:12.257Z,0.60
2023-04-13T03:52:15.354Z,0.60
2023-04-13T03:57:18.438Z,0.57
2023-04-13T04:02:23.195Z,0.70
2023-04-13T04:07:26.443Z,0.73
2023-04-13T04:12:29.883Z,0.60
2023-04-13T04:17:34.437Z,0.70
2023-04-13T04:22:37.603Z,0.80
2023-04-13T04:27:40.681Z,0.60
2023-04-13T04:32:45.209Z,0.50
2023-04-13T04:37:49.744Z,0.83
2023-04-13T04:42:54.002Z,1.40
2023-04-13T04:47:58.802Z,1.00
2023-04-13T04:53:02.034Z,0.73
2023-04-13T04:58:05.158Z,0.70
2023-04-13T05:03:09.817Z,0.77
2023-04-13T05:08:13.233Z,1.00
2023-04-13T05:13:16.481Z,0.87
2023-04-13T05:18:20.935Z,0.83
2023-04-13T05:23:24.162Z,0.90
2023-04-13T05:28:27.458Z,0.70
2023-04-13T05:33:31.965Z,1.27
2023-04-13T05:38:35.176Z,0.90
2023-04-13T05:43:38.368Z,0.83
2023-04-13T05:48:44.019Z,1.13
2023-04-13T05:53:47.443Z,0.87
2023-04-13T05:58:50.633Z,0.70
2023-04-13T06:03:56.135Z,0.90
2023-04-13T06:08:59.718Z,1.00
2023-04-13T06:14:03.618Z,1.40
2023-04-13T06:19:08.057Z,1.70
2023-04-13T06:24:11.191Z,1.00
2023-04-13T06:29:14.338Z,1.53
2023-04-13T06:34:19.173Z,1.20
2023-04-13T06:39:22.691Z,1.63
2023-04-13T06:44:25.827Z,2.07
2023-04-13T06:49:33.193Z,1.20
2023-04-13T06:54:36.585Z,1.60
2023-04-13T06:59:39.747Z,1.20
2023-04-13T07:04:44.460Z,1.00
2023-04-13T07:09:47.750Z,1.30
2023-04-13T07:14:51.026Z,1.30
2023-04-13T07:19:55.760Z,3.87
2023-04-13T07:24:58.871Z,1.10
2023-04-13T07:30:02.382Z,1.20
2023-04-13T07:35:07.446Z,2.13
2023-04-13T07:40:11.712Z,1.30
2023-04-13T07:45:15.632Z,3.20
2023-04-13T07:50:20.361Z,1.57
2023-04-13T07:55:23.554Z,1.97
2023-04-13T08:00:27.178Z,3.20
2023-04-13T08:05:31.912Z,1.90
2023-04-13T08:10:37.100Z,1.43
2023-04-13T08:15:41.527Z,1.63
2023-04-13T08:20:47.128Z,1.10
2023-04-13T08:25:50.392Z,2.10
2023-04-13T08:30:53.586Z,2.43
2023-04-13T08:35:58.311Z,2.50
2023-04-13T08:41:03.474Z,2.17
2023-04-13T08:46:07.853Z,3.70
2023-04-13T08:51:13.589Z,2.63
2023-04-13T08:56:17.781Z,1.63
2023-04-13T09:01:21.880Z,1.67
2023-04-13T09:06:33.135Z,2.30
2023-04-13T09:11:36.414Z,1.43
2023-04-13T09:16:40.988Z,2.47
2023-04-13T09:21:46.250Z,2.23
2023-04-13T09:26:50.576Z,1.40
2023-04-13T09:31:53.815Z,1.40
2023-04-13T09:37:00.299Z,3.00
2023-04-13T09:42:12.066Z,1.80
2023-04-13T09:47:15.231Z,2.13
2023-04-13T09:52:23.937Z,3.87
2023-04-13T09:57:27.606Z,2.27
2023-04-13T10:02:31.366Z,1.40
2023-04-13T10:07:37.376Z,1.80
2023-04-13T10:12:45.407Z,1.17
2023-04-13T10:17:57.947Z,1.93
2023-04-13T10:23:04.964Z,2.47
2023-04-13T10:28:08.536Z,1.93
2023-04-13T10:33:12.302Z,2.60
2023-04-13T10:38:17.065Z,2.13
2023-04-13T10:43:30.343Z,1.97
2023-04-13T10:48:33.660Z,1.90
2023-04-13T10:53:38.564Z,2.33
2023-04-13T10:58:42.184Z,1.80
2023-04-13T11:04:00.712Z,2.33
2023-04-13T11:09:13.132Z,2.67
2023-04-13T11:14:22.834Z,3.13
2023-04-13T11:19:26.129Z,2.53
2023-04-13T11:24:33.893Z,1.53
2023-04-13T11:29:37.535Z,1.90
2023-04-13T11:34:40.753Z,3.07
2023-04-13T11:39:45.391Z,1.33
2023-04-13T11:44:48.668Z,2.40
2023-04-13T11:49:52.094Z,3.90
2023-04-13T11:54:57.131Z,2.80
2023-04-13T12:00:10.101Z,1.93
2023-04-13T12:05:24.057Z,2.13
2023-04-13T12:10:39.164Z,3.90
2023-04-13T12:16:05.139Z,2.93
2023-04-13T12:21:16.941Z,3.27
2023-04-13T12:31:35.933Z,2.60
2023-04-13T12:36:39.357Z,1.47
2023-04-13T12:41:43.915Z,2.90
2023-04-13T12:46:47.122Z,2.10
2023-04-13T12:51:50.371Z,5.23
2023-04-13T12:56:54.871Z,5.30
2023-04-13T13:01:58.120Z,6.10
2023-04-13T13:07:01.964Z,5.77
2023-04-13T13:12:06.762Z,2.67
2023-04-13T13:17:09.931Z,4.13
2023-04-13T13:22:13.191Z,3.10
2023-04-13T13:32:24.452Z,1.27
2023-04-13T13:37:27.927Z,3.17
2023-04-13T13:42:44.190Z,4.87
2023-04-13T13:47:55.318Z,1.50
2023-04-13T13:53:03.098Z,1.67
2023-04-13T13:58:08.867Z,2.70
2023-04-13T14:03:13.320Z,2.90
2023-04-13T14:08:16.993Z,1.07
2023-04-13T14:13:22.080Z,2.67
2023-04-13T14:18:25.631Z,3.80
2023-04-13T14:23:28.847Z,1.77
2023-04-13T14:28:33.712Z,3.30
2023-04-13T14:33:37.016Z,2.83
2023-04-13T14:38:40.393Z,3.43
2023-04-13T14:43:44.950Z,2.33
2023-04-13T14:48:48.063Z,2.43
2023-04-13T14:53:56.195Z,3.13
2023-04-13T14:59:01.382Z,3.23
2023-04-13T15:04:05.001Z,2.73
2023-04-13T15:09:09.653Z,4.33
2023-04-13T15:14:14.092Z,3.40
2023-04-13T15:19:17.204Z,2.80
2023-04-13T15:24:20.278Z,2.20
2023-04-13T15:29:26.516Z,3.23
2023-04-13T15:34:30.679Z,2.17
2023-04-13T15:39:33.860Z,2.70
2023-04-13T15:44:38.344Z,1.60
2023-04-13T15:49:41.419Z,2.90
2023-04-13T15:54:44.528Z,2.97
2023-04-13T15:59:48.986Z,4.80
2023-04-13T16:04:52.249Z,3.53
2023-04-13T16:09:58.192Z,2.57
2023-04-13T16:15:03.436Z,3.43
2023-04-13T16:20:17.785Z,3.87
2023-04-13T16:25:21.007Z,4.70
2023-04-13T16:30:25.965Z,3.43
2023-04-13T16:35:29.252Z,5.13
2023-04-13T16:40:32.334Z,2.97
2023-04-13T16:45:37.947Z,3.97
2023-04-13T16:50:41.363Z,3.43
2023-04-13T16:55:50.812Z,4.50
2023-04-13T17:00:57.605Z,6.40
2023-04-13T17:06:00.861Z,5.77
2023-04-13T17:11:04.798Z,4.03
2023-04-13T17:16:09.603Z,3.30
2023-04-13T17:21:13.707Z,2.60
2023-04-13T17:26:16.845Z,3.30
2023-04-13T17:31:21.979Z,3.30
2023-04-13T17:36:27.462Z,4.37
2023-04-13T17:41:30.582Z,4.33
2023-04-13T17:46:35.128Z,3.47
2023-04-13T17:51:38.235Z,3.57
2023-04-13T17:56:41.399Z,4.33
2023-04-13T18:01:46.263Z,5.77
2023-04-13T18:06:49.939Z,5.17
2023-04-13T18:11:53.067Z,4.10
2023-04-13T18:16:57.737Z,3.63
2023-04-13T18:22:00.937Z,3.97
2023-04-13T18:27:04.243Z,2.27
2023-04-13T18:32:09.726Z,4.90
2023-04-13T18:37:12.845Z,5.40
2023-04-13T18:42:15.957Z,4.53
2023-04-13T18:47:22.472Z,2.53
2023-04-13T18:52:26.104Z,2.03
2023-04-13T18:57:29.370Z,2.53
2023-04-13T19:02:34.194Z,2.67
2023-04-13T19:07:37.675Z,4.37
2023-04-13T19:12:41.049Z,4.63
2023-04-13T19:17:45.670Z,3.00
2023-04-13T19:22:48.985Z,5.57
2023-04-13T19:27:52.172Z,5.77
2023-04-13T19:32:56.797Z,5.30
2023-04-13T19:38:00.035Z,3.77
2023-04-13T19:43:03.288Z,4.03
2023-04-13T19:48:08.117Z,4.13
2023-04-13T19:53:11.299Z,3.10
2023-04-13T19:58:14.459Z,4.10
2023-04-13T20:03:20.698Z,5.10
2023-04-13T20:08:24.627Z,3.70
2023-04-13T20:13:27.844Z,4.00
2023-04-13T20:18:32.539Z,2.20
2023-04-13T20:23:36.321Z,2.57
2023-04-13T20:28:39.569Z,2.13
2023-04-13T20:33:45.989Z,3.93
2023-04-13T20:38:49.769Z,2.27
2023-04-13T20:43:54.863Z,2.20
2023-04-13T20:48:59.629Z,1.93
2023-04-13T20:54:05.623Z,1.30
2023-04-13T20:59:09.109Z,1.47
2023-04-13T21:04:13.682Z,2.20
2023-04-13T21:09:17.014Z,2.17
2023-04-13T21:14:23.393Z,1.57
2023-04-13T21:19:28.299Z,1.97
2023-04-13T21:24:31.505Z,1.93
2023-04-13T21:29:35.010Z,2.63
2023-04-13T21:34:39.524Z,2.87
2023-04-13T21:39:42.576Z,2.27
2023-04-13T21:44:45.652Z,1.53
2023-04-13T21:49:50.103Z,1.13
2023-04-13T21:54:53.207Z,2.70
2023-04-13T21:59:56.531Z,1.43
2023-04-13T22:05:01.014Z,2.87
2023-04-13T22:10:04.196Z,2.97
2023-04-13T22:15:08.503Z,1.53
2023-04-13T22:20:13.570Z,1.37
2023-04-13T22:25:16.791Z,1.23
2023-04-13T22:30:20.081Z,1.80
2023-04-13T22:35:24.729Z,1.20
2023-04-13T22:40:27.831Z,1.37
2023-04-13T22:45:31.056Z,1.10
2023-04-13T22:50:37.800Z,2.00
2023-04-13T22:55:40.861Z,1.90
2023-04-13T23:00:43.954Z,1.63
2023-04-13T23:05:48.466Z,0.80
2023-04-13T23:10:51.701Z,1.73
2023-04-13T23:16:01.418Z,1.10
2023-04-13T23:21:12.105Z,1.53
2023-04-13T23:26:15.422Z,1.30
2023-04-13T23:31:18.576Z,2.10
2023-04-13T23:36:23.154Z,1.20
2023-04-13T23:41:26.530Z,1.70
2023-04-13T23:46:30.328Z,2.83
2023-04-13T23:51:34.802Z,1.33
2023-04-13T23:56:38.136Z,1.83
